메인 페이지
METAR-TAF:

METAR-TAF

공항 :

선양 타오셴 국제공항

선양, 중국

위도: 41-48N, 경도: 123-24E, 고도: 35m

현재 날씨관측

예보는 17분 전, 16:00시(UTC)에 발표되었습니다.
서남서16kt, 순간 최대 풍속 25kt
온도 13°C
습도 100%
기압 1001 hPa
시정: 8000m
고도 1000ft 상공 구름 조금
고도 2600ft 상공 흐림
약한비

METAR: ZYTX 311600Z 24008G13MPS 8000 -RA FEW010 OVC026 13/13 Q1001 NOSIG

시각: 00:17 (16:17 UTC)

예보

예보는 7 시간 16분 전, 09:01시(UTC)에 발표되었습니다.
예보 대상 시간: 31일 12시부터 01일 12시까지 (UTC)
서남서10kt
시정: 6000m
고도 3300ft 상공 구름 많음
약한비
일시적
31일 12시부터 31일 18시까지 (UTC)
시정: 2500m
고도 3000ft 상공 구름 조금, 적란운.
고도 3300ft 상공 구름 많음
뇌우, 비

TAF: ZYTX 310901Z 3112/0112 24005MPS 6000 -RA BKN033 TX25/0106Z TN12/3121Z TEMPO 3112/3118 2500 TSRA FEW030CB BKN033

4,000개 이상의 공항 관측 자료 및 예보 (METAR 및 TAF 보고).

지도상에서 검색 가능한 기상관측소가 노란 점과 빨간 점으로 표시되어 있습니다.

기상관측소 명을 보려면 표시 위로 마우스를 이동하세요.

날씨 관측과 예보를 보려면 클릭하세요.

지도 변경 : 확대하려면 엑스 표시가 있는 녹색 버튼, 축소하려면 빼기 표시가 있는 녹색 버튼, 다음 페이지의 지도를 보려면 녹색 화살표를 클릭하세요.


METAR-TAF: